sensor_id;sensor_type;location;lat;lon;timestamp;P1;durP1;ratioP1;P2;durP2;ratioP2
31692;SDS011;37436;53.230;6.614;2022-10-28T00:01:40;21.00;;;9.80;;
31692;SDS011;37436;53.230;6.614;2022-10-28T00:04:06;23.02;;;9.57;;
31692;SDS011;37436;53.230;6.614;2022-10-28T00:06:33;22.13;;;10.13;;
31692;SDS011;37436;53.230;6.614;2022-10-28T00:08:59;19.50;;;9.38;;
31692;SDS011;37436;53.230;6.614;2022-10-28T00:11:26;23.65;;;9.30;;
31692;SDS011;37436;53.230;6.614;2022-10-28T00:13:53;20.00;;;8.25;;
31692;SDS011;37436;53.230;6.614;2022-10-28T00:16:21;19.98;;;8.82;;
31692;SDS011;37436;53.230;6.614;2022-10-28T00:18:47;18.55;;;8.48;;
31692;SDS011;37436;53.230;6.614;2022-10-28T00:21:17;19.48;;;7.55;;
31692;SDS011;37436;53.230;6.614;2022-10-28T00:23:44;21.88;;;7.90;;
31692;SDS011;37436;53.230;6.614;2022-10-28T00:26:21;18.70;;;7.25;;
31692;SDS011;37436;53.230;6.614;2022-10-28T00:28:49;21.23;;;9.52;;
31692;SDS011;37436;53.230;6.614;2022-10-28T00:31:15;18.83;;;7.80;;
31692;SDS011;37436;53.230;6.614;2022-10-28T00:33:42;17.48;;;8.25;;
31692;SDS011;37436;53.230;6.614;2022-10-28T00:36:21;18.95;;;8.70;;
31692;SDS011;37436;53.230;6.614;2022-10-28T00:38:49;22.38;;;8.38;;
31692;SDS011;37436;53.230;6.614;2022-10-28T00:41:17;23.83;;;8.45;;
31692;SDS011;37436;53.230;6.614;2022-10-28T00:43:47;22.52;;;7.35;;
31692;SDS011;37436;53.230;6.614;2022-10-28T00:46:27;20.50;;;8.10;;
31692;SDS011;37436;53.230;6.614;2022-10-28T00:49:02;15.20;;;7.97;;
31692;SDS011;37436;53.230;6.614;2022-10-28T00:51:30;21.65;;;8.68;;
31692;SDS011;37436;53.230;6.614;2022-10-28T00:53:58;18.02;;;8.43;;
31692;SDS011;37436;53.230;6.614;2022-10-28T00:56:25;19.75;;;8.90;;
31692;SDS011;37436;53.230;6.614;2022-10-28T00:58:54;23.02;;;8.60;;
31692;SDS011;37436;53.230;6.614;2022-10-28T01:01:21;24.00;;;9.57;;
31692;SDS011;37436;53.230;6.614;2022-10-28T01:03:47;23.35;;;8.05;;
31692;SDS011;37436;53.230;6.614;2022-10-28T01:06:13;16.70;;;8.02;;
31692;SDS011;37436;53.230;6.614;2022-10-28T01:08:40;24.33;;;9.02;;
31692;SDS011;37436;53.230;6.614;2022-10-28T01:11:19;21.20;;;8.02;;
31692;SDS011;37436;53.230;6.614;2022-10-28T01:27:12;26.10;;;9.60;;
31692;SDS011;37436;53.230;6.614;2022-10-28T01:29:48;22.95;;;9.20;;
31692;SDS011;37436;53.230;6.614;2022-10-28T01:32:28;25.40;;;9.85;;
31692;SDS011;37436;53.230;6.614;2022-10-28T01:42:25;21.00;;;9.23;;
31692;SDS011;37436;53.230;6.614;2022-10-28T01:47:26;23.88;;;9.13;;
31692;SDS011;37436;53.230;6.614;2022-10-28T01:50:01;25.63;;;9.00;;
31692;SDS011;37436;53.230;6.614;2022-10-28T01:52:29;26.20;;;8.95;;
31692;SDS011;37436;53.230;6.614;2022-10-28T01:55:01;17.30;;;8.27;;
31692;SDS011;37436;53.230;6.614;2022-10-28T01:57:28;22.95;;;9.93;;
31692;SDS011;37436;53.230;6.614;2022-10-28T01:59:55;22.02;;;9.43;;
31692;SDS011;37436;53.230;6.614;2022-10-28T02:02:22;25.10;;;10.38;;
31692;SDS011;37436;53.230;6.614;2022-10-28T02:04:48;25.00;;;9.80;;
31692;SDS011;37436;53.230;6.614;2022-10-28T02:07:14;22.52;;;9.82;;
31692;SDS011;37436;53.230;6.614;2022-10-28T02:09:56;25.67;;;10.45;;
31692;SDS011;37436;53.230;6.614;2022-10-28T02:12:30;24.23;;;10.80;;
31692;SDS011;37436;53.230;6.614;2022-10-28T02:17:54;17.92;;;8.82;;
31692;SDS011;37436;53.230;6.614;2022-10-28T02:23:10;22.15;;;9.90;;
31692;SDS011;37436;53.230;6.614;2022-10-28T02:25:45;23.17;;;9.38;;
31692;SDS011;37436;53.230;6.614;2022-10-28T02:28:15;26.52;;;9.57;;
31692;SDS011;37436;53.230;6.614;2022-10-28T02:33:11;25.33;;;10.60;;
31692;SDS011;37436;53.230;6.614;2022-10-28T02:35:56;20.88;;;9.10;;
31692;SDS011;37436;53.230;6.614;2022-10-28T02:38:33;20.23;;;9.52;;
31692;SDS011;37436;53.230;6.614;2022-10-28T02:41:02;25.58;;;9.85;;
31692;SDS011;37436;53.230;6.614;2022-10-28T02:43:29;26.90;;;10.93;;
31692;SDS011;37436;53.230;6.614;2022-10-28T02:45:57;32.63;;;10.82;;
31692;SDS011;37436;53.230;6.614;2022-10-28T02:48:29;22.83;;;10.77;;
31692;SDS011;37436;53.230;6.614;2022-10-28T02:50:57;25.20;;;10.98;;
31692;SDS011;37436;53.230;6.614;2022-10-28T02:53:29;27.08;;;10.63;;
31692;SDS011;37436;53.230;6.614;2022-10-28T02:55:58;26.58;;;10.48;;
31692;SDS011;37436;53.230;6.614;2022-10-28T02:58:25;29.40;;;11.40;;
31692;SDS011;37436;53.230;6.614;2022-10-28T03:00:54;27.85;;;10.75;;
31692;SDS011;37436;53.230;6.614;2022-10-28T03:03:20;24.67;;;11.23;;
31692;SDS011;37436;53.230;6.614;2022-10-28T03:05:46;28.33;;;11.27;;
31692;SDS011;37436;53.230;6.614;2022-10-28T03:08:12;25.45;;;11.05;;
31692;SDS011;37436;53.230;6.614;2022-10-28T03:10:38;22.13;;;9.85;;
31692;SDS011;37436;53.230;6.614;2022-10-28T03:13:04;21.27;;;10.77;;
31692;SDS011;37436;53.230;6.614;2022-10-28T03:15:30;25.50;;;11.00;;
31692;SDS011;37436;53.230;6.614;2022-10-28T03:17:56;29.15;;;9.88;;
31692;SDS011;37436;53.230;6.614;2022-10-28T03:20:22;22.27;;;9.75;;
31692;SDS011;37436;53.230;6.614;2022-10-28T03:22:48;22.85;;;10.02;;
31692;SDS011;37436;53.230;6.614;2022-10-28T03:25:14;19.25;;;8.77;;
31692;SDS011;37436;53.230;6.614;2022-10-28T03:27:40;22.60;;;10.95;;
31692;SDS011;37436;53.230;6.614;2022-10-28T03:30:07;23.38;;;11.93;;
31692;SDS011;37436;53.230;6.614;2022-10-28T03:32:33;27.98;;;11.30;;
31692;SDS011;37436;53.230;6.614;2022-10-28T03:34:59;29.50;;;11.70;;
31692;SDS011;37436;53.230;6.614;2022-10-28T03:37:25;30.63;;;11.38;;
31692;SDS011;37436;53.230;6.614;2022-10-28T03:39:51;21.52;;;10.70;;
31692;SDS011;37436;53.230;6.614;2022-10-28T03:42:17;37.85;;;12.15;;
31692;SDS011;37436;53.230;6.614;2022-10-28T03:44:43;24.42;;;10.45;;
31692;SDS011;37436;53.230;6.614;2022-10-28T03:47:09;26.52;;;11.10;;
31692;SDS011;37436;53.230;6.614;2022-10-28T03:49:35;25.63;;;11.63;;
31692;SDS011;37436;53.230;6.614;2022-10-28T03:52:01;22.90;;;11.60;;
31692;SDS011;37436;53.230;6.614;2022-10-28T03:54:28;35.90;;;11.60;;
31692;SDS011;37436;53.230;6.614;2022-10-28T03:56:54;20.13;;;9.52;;
31692;SDS011;37436;53.230;6.614;2022-10-28T03:59:26;29.02;;;11.82;;
31692;SDS011;37436;53.230;6.614;2022-10-28T04:01:52;21.88;;;11.35;;
31692;SDS011;37436;53.230;6.614;2022-10-28T04:04:19;26.58;;;12.27;;
31692;SDS011;37436;53.230;6.614;2022-10-28T04:06:45;25.27;;;11.88;;
31692;SDS011;37436;53.230;6.614;2022-10-28T04:09:10;26.83;;;12.70;;
31692;SDS011;37436;53.230;6.614;2022-10-28T04:11:36;26.80;;;10.85;;
31692;SDS011;37436;53.230;6.614;2022-10-28T04:14:03;22.55;;;12.95;;
31692;SDS011;37436;53.230;6.614;2022-10-28T04:16:29;27.50;;;11.80;;
31692;SDS011;37436;53.230;6.614;2022-10-28T04:18:55;26.60;;;11.10;;
31692;SDS011;37436;53.230;6.614;2022-10-28T04:21:21;24.02;;;12.07;;
31692;SDS011;37436;53.230;6.614;2022-10-28T04:23:47;31.80;;;12.18;;
31692;SDS011;37436;53.230;6.614;2022-10-28T04:26:13;27.60;;;12.68;;
31692;SDS011;37436;53.230;6.614;2022-10-28T04:28:39;33.42;;;11.48;;
31692;SDS011;37436;53.230;6.614;2022-10-28T04:31:05;27.15;;;12.05;;
31692;SDS011;37436;53.230;6.614;2022-10-28T04:33:31;31.17;;;11.38;;
31692;SDS011;37436;53.230;6.614;2022-10-28T04:35:57;33.55;;;10.85;;
31692;SDS011;37436;53.230;6.614;2022-10-28T04:38:23;26.65;;;11.98;;
31692;SDS011;37436;53.230;6.614;2022-10-28T04:40:49;25.17;;;11.07;;
31692;SDS011;37436;53.230;6.614;2022-10-28T04:43:15;31.25;;;12.25;;
31692;SDS011;37436;53.230;6.614;2022-10-28T04:45:42;29.48;;;12.82;;
31692;SDS011;37436;53.230;6.614;2022-10-28T04:48:08;29.10;;;12.43;;
31692;SDS011;37436;53.230;6.614;2022-10-28T04:50:37;32.83;;;13.13;;
31692;SDS011;37436;53.230;6.614;2022-10-28T04:53:03;28.15;;;12.35;;
31692;SDS011;37436;53.230;6.614;2022-10-28T04:55:29;28.42;;;12.20;;
31692;SDS011;37436;53.230;6.614;2022-10-28T04:57:56;39.53;;;12.55;;
31692;SDS011;37436;53.230;6.614;2022-10-28T05:00:23;36.33;;;13.45;;
31692;SDS011;37436;53.230;6.614;2022-10-28T05:02:49;36.70;;;13.38;;
31692;SDS011;37436;53.230;6.614;2022-10-28T05:05:16;31.42;;;13.82;;
31692;SDS011;37436;53.230;6.614;2022-10-28T05:07:42;30.33;;;12.73;;
31692;SDS011;37436;53.230;6.614;2022-10-28T05:10:16;34.17;;;13.77;;
31692;SDS011;37436;53.230;6.614;2022-10-28T05:12:42;43.35;;;14.55;;
31692;SDS011;37436;53.230;6.614;2022-10-28T05:15:08;36.75;;;14.88;;
31692;SDS011;37436;53.230;6.614;2022-10-28T05:17:36;25.67;;;13.77;;
31692;SDS011;37436;53.230;6.614;2022-10-28T05:20:02;34.20;;;15.02;;
31692;SDS011;37436;53.230;6.614;2022-10-28T05:22:29;38.47;;;15.63;;
31692;SDS011;37436;53.230;6.614;2022-10-28T05:24:55;35.40;;;15.20;;
31692;SDS011;37436;53.230;6.614;2022-10-28T05:27:21;44.58;;;14.73;;
31692;SDS011;37436;53.230;6.614;2022-10-28T05:29:47;36.10;;;14.70;;
31692;SDS011;37436;53.230;6.614;2022-10-28T05:32:13;34.35;;;14.77;;
31692;SDS011;37436;53.230;6.614;2022-10-28T05:34:39;36.70;;;14.52;;
31692;SDS011;37436;53.230;6.614;2022-10-28T05:37:05;35.58;;;14.85;;
31692;SDS011;37436;53.230;6.614;2022-10-28T05:39:31;32.95;;;14.38;;
31692;SDS011;37436;53.230;6.614;2022-10-28T05:41:57;39.03;;;14.52;;
31692;SDS011;37436;53.230;6.614;2022-10-28T05:44:23;35.70;;;15.45;;
31692;SDS011;37436;53.230;6.614;2022-10-28T05:46:49;38.88;;;14.73;;
31692;SDS011;37436;53.230;6.614;2022-10-28T05:49:15;38.20;;;15.80;;
31692;SDS011;37436;53.230;6.614;2022-10-28T05:51:44;34.17;;;13.75;;
31692;SDS011;37436;53.230;6.614;2022-10-28T05:54:11;42.88;;;14.68;;
31692;SDS011;37436;53.230;6.614;2022-10-28T05:56:37;30.45;;;13.60;;
31692;SDS011;37436;53.230;6.614;2022-10-28T05:59:02;31.92;;;13.85;;
31692;SDS011;37436;53.230;6.614;2022-10-28T06:01:29;30.40;;;15.30;;
31692;SDS011;37436;53.230;6.614;2022-10-28T06:03:55;35.53;;;14.13;;
31692;SDS011;37436;53.230;6.614;2022-10-28T06:06:21;40.38;;;13.90;;
31692;SDS011;37436;53.230;6.614;2022-10-28T06:08:47;33.80;;;12.60;;
31692;SDS011;37436;53.230;6.614;2022-10-28T06:11:13;41.53;;;14.43;;
31692;SDS011;37436;53.230;6.614;2022-10-28T06:13:39;39.95;;;14.82;;
31692;SDS011;37436;53.230;6.614;2022-10-28T06:16:05;35.20;;;14.23;;
31692;SDS011;37436;53.230;6.614;2022-10-28T06:18:31;36.50;;;14.77;;
31692;SDS011;37436;53.230;6.614;2022-10-28T06:20:58;36.75;;;14.23;;
31692;SDS011;37436;53.230;6.614;2022-10-28T06:23:25;34.05;;;13.48;;
31692;SDS011;37436;53.230;6.614;2022-10-28T06:25:59;29.80;;;13.45;;
31692;SDS011;37436;53.230;6.614;2022-10-28T06:28:25;35.80;;;13.68;;
31692;SDS011;37436;53.230;6.614;2022-10-28T06:30:52;35.67;;;13.88;;
31692;SDS011;37436;53.230;6.614;2022-10-28T06:33:18;38.55;;;14.88;;
31692;SDS011;37436;53.230;6.614;2022-10-28T06:35:44;26.60;;;13.20;;
31692;SDS011;37436;53.230;6.614;2022-10-28T06:38:10;31.10;;;13.00;;
31692;SDS011;37436;53.230;6.614;2022-10-28T06:40:36;34.90;;;14.02;;
31692;SDS011;37436;53.230;6.614;2022-10-28T06:43:03;37.95;;;14.38;;
31692;SDS011;37436;53.230;6.614;2022-10-28T06:45:30;31.33;;;13.77;;
31692;SDS011;37436;53.230;6.614;2022-10-28T06:47:57;26.85;;;13.75;;
31692;SDS011;37436;53.230;6.614;2022-10-28T06:50:23;33.20;;;13.05;;
31692;SDS011;37436;53.230;6.614;2022-10-28T06:52:49;36.95;;;15.98;;
31692;SDS011;37436;53.230;6.614;2022-10-28T06:55:15;34.25;;;12.82;;
31692;SDS011;37436;53.230;6.614;2022-10-28T06:57:41;27.85;;;12.50;;
31692;SDS011;37436;53.230;6.614;2022-10-28T07:00:07;27.50;;;12.43;;
31692;SDS011;37436;53.230;6.614;2022-10-28T07:02:34;31.80;;;13.35;;
31692;SDS011;37436;53.230;6.614;2022-10-28T07:05:00;27.48;;;12.93;;
31692;SDS011;37436;53.230;6.614;2022-10-28T07:07:26;40.78;;;13.50;;
31692;SDS011;37436;53.230;6.614;2022-10-28T07:09:52;32.67;;;12.95;;
31692;SDS011;37436;53.230;6.614;2022-10-28T07:12:18;36.20;;;13.02;;
31692;SDS011;37436;53.230;6.614;2022-10-28T07:14:45;35.30;;;12.05;;
31692;SDS011;37436;53.230;6.614;2022-10-28T07:17:11;30.60;;;12.45;;
31692;SDS011;37436;53.230;6.614;2022-10-28T07:19:37;32.08;;;11.52;;
31692;SDS011;37436;53.230;6.614;2022-10-28T07:22:03;24.80;;;11.73;;
31692;SDS011;37436;53.230;6.614;2022-10-28T07:24:29;28.80;;;11.68;;
31692;SDS011;37436;53.230;6.614;2022-10-28T07:26:55;30.15;;;11.27;;
31692;SDS011;37436;53.230;6.614;2022-10-28T07:29:21;36.45;;;11.95;;
31692;SDS011;37436;53.230;6.614;2022-10-28T07:31:47;23.92;;;11.55;;
31692;SDS011;37436;53.230;6.614;2022-10-28T07:34:13;27.73;;;10.25;;
31692;SDS011;37436;53.230;6.614;2022-10-28T07:36:39;22.20;;;10.02;;
31692;SDS011;37436;53.230;6.614;2022-10-28T07:39:05;25.33;;;10.10;;
31692;SDS011;37436;53.230;6.614;2022-10-28T07:41:31;25.15;;;10.35;;
31692;SDS011;37436;53.230;6.614;2022-10-28T07:43:57;29.98;;;11.13;;
31692;SDS011;37436;53.230;6.614;2022-10-28T07:46:24;25.77;;;10.38;;
31692;SDS011;37436;53.230;6.614;2022-10-28T07:48:50;24.17;;;9.63;;
31692;SDS011;37436;53.230;6.614;2022-10-28T07:51:16;23.67;;;9.35;;
31692;SDS011;37436;53.230;6.614;2022-10-28T07:53:42;21.27;;;9.50;;
31692;SDS011;37436;53.230;6.614;2022-10-28T07:56:09;25.00;;;8.95;;
31692;SDS011;37436;53.230;6.614;2022-10-28T07:58:39;22.33;;;8.48;;
31692;SDS011;37436;53.230;6.614;2022-10-28T08:01:06;23.08;;;8.23;;
31692;SDS011;37436;53.230;6.614;2022-10-28T08:03:32;21.02;;;8.35;;
31692;SDS011;37436;53.230;6.614;2022-10-28T08:06:03;28.83;;;9.25;;
31692;SDS011;37436;53.230;6.614;2022-10-28T08:08:29;26.45;;;8.50;;
31692;SDS011;37436;53.230;6.614;2022-10-28T08:10:55;22.98;;;7.85;;
31692;SDS011;37436;53.230;6.614;2022-10-28T08:13:21;16.63;;;6.95;;
31692;SDS011;37436;53.230;6.614;2022-10-28T08:15:51;16.55;;;7.22;;
31692;SDS011;37436;53.230;6.614;2022-10-28T08:18:17;17.13;;;6.43;;
31692;SDS011;37436;53.230;6.614;2022-10-28T08:20:43;20.33;;;7.03;;
31692;SDS011;37436;53.230;6.614;2022-10-28T08:23:09;21.98;;;8.07;;
31692;SDS011;37436;53.230;6.614;2022-10-28T08:25:35;16.33;;;6.15;;
31692;SDS011;37436;53.230;6.614;2022-10-28T08:28:01;18.20;;;7.25;;
31692;SDS011;37436;53.230;6.614;2022-10-28T08:30:27;17.45;;;6.25;;
31692;SDS011;37436;53.230;6.614;2022-10-28T08:32:53;25.27;;;6.32;;
31692;SDS011;37436;53.230;6.614;2022-10-28T08:35:20;17.92;;;6.57;;
31692;SDS011;37436;53.230;6.614;2022-10-28T08:37:50;14.30;;;6.70;;
31692;SDS011;37436;53.230;6.614;2022-10-28T08:40:16;19.55;;;5.43;;
31692;SDS011;37436;53.230;6.614;2022-10-28T08:42:46;17.95;;;5.85;;
31692;SDS011;37436;53.230;6.614;2022-10-28T08:45:22;14.68;;;4.97;;
31692;SDS011;37436;53.230;6.614;2022-10-28T08:47:52;12.73;;;4.97;;
31692;SDS011;37436;53.230;6.614;2022-10-28T08:50:20;14.50;;;4.90;;
31692;SDS011;37436;53.230;6.614;2022-10-28T08:55:30;17.55;;;6.20;;
31692;SDS011;37436;53.230;6.614;2022-10-28T09:00:28;15.60;;;4.85;;
31692;SDS011;37436;53.230;6.614;2022-10-28T09:05:37;14.52;;;4.53;;
31692;SDS011;37436;53.230;6.614;2022-10-28T09:08:04;22.42;;;5.82;;
31692;SDS011;37436;53.230;6.614;2022-10-28T09:10:47;14.18;;;6.15;;
31692;SDS011;37436;53.230;6.614;2022-10-28T09:16:13;19.60;;;5.45;;
31692;SDS011;37436;53.230;6.614;2022-10-28T09:18:53;13.55;;;5.53;;
31692;SDS011;37436;53.230;6.614;2022-10-28T09:23:53;26.58;;;6.35;;
31692;SDS011;37436;53.230;6.614;2022-10-28T09:29:14;12.25;;;5.68;;
31692;SDS011;37436;53.230;6.614;2022-10-28T09:31:46;12.73;;;5.53;;
31692;SDS011;37436;53.230;6.614;2022-10-28T09:34:15;21.48;;;8.07;;
31692;SDS011;37436;53.230;6.614;2022-10-28T09:36:43;15.93;;;5.90;;
31692;SDS011;37436;53.230;6.614;2022-10-28T09:39:13;16.38;;;5.25;;
31692;SDS011;37436;53.230;6.614;2022-10-28T09:41:39;19.02;;;5.68;;
31692;SDS011;37436;53.230;6.614;2022-10-28T09:44:15;29.52;;;7.40;;
31692;SDS011;37436;53.230;6.614;2022-10-28T09:46:44;15.73;;;5.57;;
31692;SDS011;37436;53.230;6.614;2022-10-28T09:49:13;16.02;;;6.75;;
31692;SDS011;37436;53.230;6.614;2022-10-28T09:52:24;16.92;;;6.07;;
31692;SDS011;37436;53.230;6.614;2022-10-28T09:54:32;13.82;;;6.68;;
31692;SDS011;37436;53.230;6.614;2022-10-28T09:56:59;17.13;;;6.30;;
31692;SDS011;37436;53.230;6.614;2022-10-28T09:59:26;19.58;;;6.40;;
31692;SDS011;37436;53.230;6.614;2022-10-28T10:01:52;23.98;;;5.63;;
31692;SDS011;37436;53.230;6.614;2022-10-28T10:04:19;17.92;;;5.55;;
31692;SDS011;37436;53.230;6.614;2022-10-28T10:06:47;16.05;;;4.75;;
31692;SDS011;37436;53.230;6.614;2022-10-28T10:09:22;25.75;;;6.22;;
31692;SDS011;37436;53.230;6.614;2022-10-28T10:11:49;19.20;;;5.20;;
31692;SDS011;37436;53.230;6.614;2022-10-28T10:14:20;22.33;;;5.95;;
31692;SDS011;37436;53.230;6.614;2022-10-28T10:16:58;13.30;;;5.15;;
31692;SDS011;37436;53.230;6.614;2022-10-28T10:19:24;23.08;;;4.82;;
31692;SDS011;37436;53.230;6.614;2022-10-28T10:21:51;14.88;;;5.32;;
31692;SDS011;37436;53.230;6.614;2022-10-28T10:24:28;33.90;;;6.22;;
31692;SDS011;37436;53.230;6.614;2022-10-28T10:26:55;20.25;;;6.65;;
31692;SDS011;37436;53.230;6.614;2022-10-28T10:29:35;18.08;;;5.40;;
31692;SDS011;37436;53.230;6.614;2022-10-28T10:32:47;27.67;;;5.03;;
31692;SDS011;37436;53.230;6.614;2022-10-28T10:37:18;24.75;;;5.72;;
31692;SDS011;37436;53.230;6.614;2022-10-28T10:40:49;13.77;;;4.97;;
31692;SDS011;37436;53.230;6.614;2022-10-28T10:42:43;13.73;;;5.13;;
31692;SDS011;37436;53.230;6.614;2022-10-28T10:47:37;17.88;;;5.75;;
31692;SDS011;37436;53.230;6.614;2022-10-28T10:53:01;17.60;;;5.75;;
31692;SDS011;37436;53.230;6.614;2022-10-28T10:57:53;20.50;;;5.30;;
31692;SDS011;37436;53.230;6.614;2022-10-28T11:00:28;15.63;;;5.53;;
31692;SDS011;37436;53.230;6.614;2022-10-28T11:02:55;17.30;;;5.20;;
31692;SDS011;37436;53.230;6.614;2022-10-28T11:05:22;16.13;;;5.22;;
31692;SDS011;37436;53.230;6.614;2022-10-28T11:07:48;19.88;;;5.18;;
31692;SDS011;37436;53.230;6.614;2022-10-28T11:10:30;13.48;;;5.30;;
31692;SDS011;37436;53.230;6.614;2022-10-28T11:12:58;26.08;;;5.88;;
31692;SDS011;37436;53.230;6.614;2022-10-28T11:15:29;14.10;;;5.55;;
31692;SDS011;37436;53.230;6.614;2022-10-28T11:20:42;21.63;;;5.15;;
31692;SDS011;37436;53.230;6.614;2022-10-28T11:25:39;22.83;;;5.03;;
31692;SDS011;37436;53.230;6.614;2022-10-28T11:38:32;18.60;;;6.30;;
31692;SDS011;37436;53.230;6.614;2022-10-28T11:43:51;21.58;;;4.90;;
31692;SDS011;37436;53.230;6.614;2022-10-28T11:57:17;25.40;;;5.80;;
31692;SDS011;37436;53.230;6.614;2022-10-28T12:10:00;21.98;;;5.00;;
31692;SDS011;37436;53.230;6.614;2022-10-28T12:12:37;14.60;;;4.70;;
31692;SDS011;37436;53.230;6.614;2022-10-28T12:18:05;19.45;;;5.03;;
31692;SDS011;37436;53.230;6.614;2022-10-28T12:20:34;17.50;;;4.60;;
31692;SDS011;37436;53.230;6.614;2022-10-28T12:23:02;25.23;;;5.30;;
31692;SDS011;37436;53.230;6.614;2022-10-28T12:25:30;22.48;;;7.15;;
31692;SDS011;37436;53.230;6.614;2022-10-28T12:27:58;17.58;;;4.10;;
31692;SDS011;37436;53.230;6.614;2022-10-28T12:30:27;20.90;;;4.88;;
31692;SDS011;37436;53.230;6.614;2022-10-28T12:33:12;14.38;;;4.85;;
31692;SDS011;37436;53.230;6.614;2022-10-28T12:35:40;18.08;;;4.43;;
31692;SDS011;37436;53.230;6.614;2022-10-28T12:44:00;20.85;;;5.22;;
31692;SDS011;37436;53.230;6.614;2022-10-28T12:46:29;19.92;;;4.90;;
31692;SDS011;37436;53.230;6.614;2022-10-28T12:49:02;13.32;;;4.50;;
31692;SDS011;37436;53.230;6.614;2022-10-28T12:51:30;21.02;;;5.15;;
31692;SDS011;37436;53.230;6.614;2022-10-28T12:56:49;26.63;;;5.88;;
31692;SDS011;37436;53.230;6.614;2022-10-28T12:59:29;15.50;;;5.18;;
31692;SDS011;37436;53.230;6.614;2022-10-28T13:01:56;28.80;;;6.53;;
31692;SDS011;37436;53.230;6.614;2022-10-28T13:04:25;19.85;;;5.13;;
31692;SDS011;37436;53.230;6.614;2022-10-28T13:09:42;25.75;;;5.65;;
31692;SDS011;37436;53.230;6.614;2022-10-28T13:22:35;17.00;;;5.07;;
31692;SDS011;37436;53.230;6.614;2022-10-28T13:27:58;15.07;;;4.70;;
31692;SDS011;37436;53.230;6.614;2022-10-28T13:30:25;18.33;;;5.50;;
31692;SDS011;37436;53.230;6.614;2022-10-28T13:33:01;20.25;;;5.63;;
31692;SDS011;37436;53.230;6.614;2022-10-28T13:35:28;18.00;;;4.72;;
31692;SDS011;37436;53.230;6.614;2022-10-28T13:37:55;15.13;;;5.45;;
31692;SDS011;37436;53.230;6.614;2022-10-28T13:42:58;17.98;;;4.80;;
31692;SDS011;37436;53.230;6.614;2022-10-28T13:45:43;19.58;;;5.80;;
31692;SDS011;37436;53.230;6.614;2022-10-28T13:56:48;17.98;;;5.20;;
31692;SDS011;37436;53.230;6.614;2022-10-28T14:04:00;19.55;;;4.97;;
31692;SDS011;37436;53.230;6.614;2022-10-28T14:06:30;16.65;;;5.80;;
31692;SDS011;37436;53.230;6.614;2022-10-28T14:08:58;23.23;;;5.55;;
31692;SDS011;37436;53.230;6.614;2022-10-28T14:11:26;16.67;;;5.15;;
31692;SDS011;37436;53.230;6.614;2022-10-28T14:13:55;21.52;;;5.45;;
31692;SDS011;37436;53.230;6.614;2022-10-28T14:18:56;17.80;;;5.40;;
31692;SDS011;37436;53.230;6.614;2022-10-28T14:21:24;18.13;;;5.63;;
31692;SDS011;37436;53.230;6.614;2022-10-28T14:24:07;17.30;;;5.20;;
31692;SDS011;37436;53.230;6.614;2022-10-28T14:29:26;21.17;;;5.15;;
31692;SDS011;37436;53.230;6.614;2022-10-28T14:31:53;19.65;;;6.47;;
31692;SDS011;37436;53.230;6.614;2022-10-28T14:36:52;20.38;;;6.10;;
31692;SDS011;37436;53.230;6.614;2022-10-28T14:39:30;20.48;;;5.70;;
31692;SDS011;37436;53.230;6.614;2022-10-28T14:42:10;15.82;;;4.50;;
31692;SDS011;37436;53.230;6.614;2022-10-28T14:52:29;17.85;;;5.72;;
31692;SDS011;37436;53.230;6.614;2022-10-28T14:54:56;17.13;;;4.13;;
31692;SDS011;37436;53.230;6.614;2022-10-28T14:57:27;16.52;;;6.35;;
31692;SDS011;37436;53.230;6.614;2022-10-28T14:59:53;27.67;;;6.53;;
31692;SDS011;37436;53.230;6.614;2022-10-28T15:02:20;18.15;;;6.72;;
31692;SDS011;37436;53.230;6.614;2022-10-28T15:04:56;16.88;;;5.68;;
31692;SDS011;37436;53.230;6.614;2022-10-28T15:07:25;18.70;;;5.68;;
31692;SDS011;37436;53.230;6.614;2022-10-28T15:09:51;22.35;;;5.70;;
31692;SDS011;37436;53.230;6.614;2022-10-28T15:12:21;15.50;;;5.30;;
31692;SDS011;37436;53.230;6.614;2022-10-28T15:14:51;27.10;;;6.45;;
31692;SDS011;37436;53.230;6.614;2022-10-28T15:17:27;20.45;;;5.90;;
31692;SDS011;37436;53.230;6.614;2022-10-28T15:19:58;27.23;;;5.60;;
31692;SDS011;37436;53.230;6.614;2022-10-28T15:22:35;21.73;;;6.65;;
31692;SDS011;37436;53.230;6.614;2022-10-28T15:25:02;27.17;;;6.65;;
31692;SDS011;37436;53.230;6.614;2022-10-28T15:27:31;23.02;;;6.93;;
31692;SDS011;37436;53.230;6.614;2022-10-28T15:29:58;27.02;;;6.15;;
31692;SDS011;37436;53.230;6.614;2022-10-28T15:32:25;18.25;;;6.00;;
31692;SDS011;37436;53.230;6.614;2022-10-28T15:34:52;32.20;;;7.00;;
31692;SDS011;37436;53.230;6.614;2022-10-28T15:37:27;16.92;;;6.40;;
31692;SDS011;37436;53.230;6.614;2022-10-28T15:45:40;29.48;;;6.43;;
31692;SDS011;37436;53.230;6.614;2022-10-28T15:48:09;21.55;;;5.63;;
31692;SDS011;37436;53.230;6.614;2022-10-28T15:50:36;11.73;;;5.55;;
31692;SDS011;37436;53.230;6.614;2022-10-28T15:55:34;24.40;;;6.50;;
31692;SDS011;37436;53.230;6.614;2022-10-28T15:58:02;18.15;;;5.43;;
31692;SDS011;37436;53.230;6.614;2022-10-28T16:00:29;20.95;;;6.30;;
31692;SDS011;37436;53.230;6.614;2022-10-28T16:02:59;23.27;;;6.07;;
31692;SDS011;37436;53.230;6.614;2022-10-28T16:08:06;22.60;;;8.00;;
31692;SDS011;37436;53.230;6.614;2022-10-28T16:10:33;11.88;;;4.13;;
31692;SDS011;37436;53.230;6.614;2022-10-28T16:13:00;25.60;;;6.43;;
31692;SDS011;37436;53.230;6.614;2022-10-28T16:15:27;22.05;;;6.72;;
31692;SDS011;37436;53.230;6.614;2022-10-28T16:17:53;18.65;;;6.25;;
31692;SDS011;37436;53.230;6.614;2022-10-28T16:20:20;18.52;;;5.55;;
31692;SDS011;37436;53.230;6.614;2022-10-28T16:22:47;25.55;;;5.95;;
31692;SDS011;37436;53.230;6.614;2022-10-28T16:25:14;20.83;;;6.28;;
31692;SDS011;37436;53.230;6.614;2022-10-28T16:27:48;20.67;;;8.13;;
31692;SDS011;37436;53.230;6.614;2022-10-28T16:30:17;26.60;;;8.88;;
31692;SDS011;37436;53.230;6.614;2022-10-28T16:32:44;26.75;;;6.10;;
31692;SDS011;37436;53.230;6.614;2022-10-28T16:35:21;24.90;;;5.80;;
31692;SDS011;37436;53.230;6.614;2022-10-28T16:37:48;17.65;;;6.03;;
31692;SDS011;37436;53.230;6.614;2022-10-28T16:40:15;19.75;;;6.93;;
31692;SDS011;37436;53.230;6.614;2022-10-28T16:42:41;17.15;;;6.03;;
31692;SDS011;37436;53.230;6.614;2022-10-28T16:45:16;27.90;;;5.25;;
31692;SDS011;37436;53.230;6.614;2022-10-28T16:47:43;18.65;;;5.75;;
31692;SDS011;37436;53.230;6.614;2022-10-28T16:50:10;21.85;;;6.05;;
31692;SDS011;37436;53.230;6.614;2022-10-28T16:52:36;26.02;;;7.10;;
31692;SDS011;37436;53.230;6.614;2022-10-28T16:55:02;21.75;;;5.60;;
31692;SDS011;37436;53.230;6.614;2022-10-28T16:57:28;19.58;;;5.50;;
31692;SDS011;37436;53.230;6.614;2022-10-28T16:59:54;35.40;;;8.40;;
31692;SDS011;37436;53.230;6.614;2022-10-28T17:02:27;29.40;;;6.75;;
31692;SDS011;37436;53.230;6.614;2022-10-28T17:04:54;27.35;;;6.63;;
31692;SDS011;37436;53.230;6.614;2022-10-28T17:07:20;24.20;;;5.95;;
31692;SDS011;37436;53.230;6.614;2022-10-28T17:09:46;20.05;;;6.53;;
31692;SDS011;37436;53.230;6.614;2022-10-28T17:12:16;18.35;;;6.10;;
31692;SDS011;37436;53.230;6.614;2022-10-28T17:14:43;34.50;;;6.63;;
31692;SDS011;37436;53.230;6.614;2022-10-28T17:17:09;27.83;;;8.05;;
31692;SDS011;37436;53.230;6.614;2022-10-28T17:19:39;27.80;;;6.05;;
31692;SDS011;37436;53.230;6.614;2022-10-28T17:22:05;23.45;;;6.05;;
31692;SDS011;37436;53.230;6.614;2022-10-28T17:24:32;21.30;;;6.60;;
31692;SDS011;37436;53.230;6.614;2022-10-28T17:26:58;15.98;;;5.03;;